Airports Norway Kristiansund Airport (Kvernberget)

Kristiansund Airport (Kvernberget) (ENKB / KSU)

Facts about Kristiansund Airport (Kvernberget)

Name Kristiansund Airport (Kvernberget)
City Kristiansund
Country Norway
ICAO code ENKB
IATA code KSU
Elevation 62.1792 meters (204 feet)

Weather

METAR

Metar data retrieved Friday, 19 July 2024 at 23:25 UTC (7 minutes ago)

ENKB 192250Z AUTO 09006KT 9999 FEW160/// SCT180/// 18/12 Q1015 RMK WIND 745FT 14013KT

Live traffic

Navigraph Charts (account required)